sensor_id;sensor_type;location;lat;lon;timestamp;pressure;altitude;pressure_sealevel;temperature;humidity
11223;BME280;5668;52.012;8.724;2022-11-14T00:00:53;100436.34;;;7.88;77.47
11223;BME280;5668;52.012;8.724;2022-11-14T00:03:23;100434.34;;;7.77;77.46
11223;BME280;5668;52.012;8.724;2022-11-14T00:05:50;100437.19;;;7.73;78.35
11223;BME280;5668;52.012;8.724;2022-11-14T00:08:20;100434.00;;;7.68;78.33
11223;BME280;5668;52.012;8.724;2022-11-14T00:10:48;100438.53;;;7.64;78.56
11223;BME280;5668;52.012;8.724;2022-11-14T00:13:17;100442.69;;;7.67;78.90
11223;BME280;5668;52.012;8.724;2022-11-14T00:15:48;100432.53;;;7.64;78.75
11223;BME280;5668;52.012;8.724;2022-11-14T00:18:16;100433.03;;;7.55;78.79
11223;BME280;5668;52.012;8.724;2022-11-14T00:20:46;100437.78;;;7.47;78.81
11223;BME280;5668;52.012;8.724;2022-11-14T00:23:14;100421.63;;;7.43;79.50
11223;BME280;5668;52.012;8.724;2022-11-14T00:25:42;100412.56;;;7.36;79.73
11223;BME280;5668;52.012;8.724;2022-11-14T00:28:10;100420.53;;;7.31;80.57
11223;BME280;5668;52.012;8.724;2022-11-14T00:30:37;100412.97;;;7.28;79.21
11223;BME280;5668;52.012;8.724;2022-11-14T00:33:04;100420.03;;;7.25;80.34
11223;BME280;5668;52.012;8.724;2022-11-14T00:35:31;100411.53;;;7.23;80.23
11223;BME280;5668;52.012;8.724;2022-11-14T00:38:00;100413.28;;;7.22;80.78
11223;BME280;5668;52.012;8.724;2022-11-14T00:40:27;100408.09;;;7.22;80.88
11223;BME280;5668;52.012;8.724;2022-11-14T00:42:54;100402.94;;;7.22;81.28
11223;BME280;5668;52.012;8.724;2022-11-14T00:45:22;100405.53;;;7.22;80.52
11223;BME280;5668;52.012;8.724;2022-11-14T00:47:49;100401.19;;;7.23;80.93
11223;BME280;5668;52.012;8.724;2022-11-14T00:50:17;100397.88;;;7.21;80.23
11223;BME280;5668;52.012;8.724;2022-11-14T00:52:45;100393.84;;;7.15;80.10
11223;BME280;5668;52.012;8.724;2022-11-14T00:55:15;100387.97;;;7.13;81.39
11223;BME280;5668;52.012;8.724;2022-11-14T00:57:42;100383.94;;;7.08;80.63
11223;BME280;5668;52.012;8.724;2022-11-14T01:00:11;100383.22;;;7.06;80.63
11223;BME280;5668;52.012;8.724;2022-11-14T01:02:40;100382.38;;;7.05;81.67
11223;BME280;5668;52.012;8.724;2022-11-14T01:05:08;100378.03;;;7.06;81.21
11223;BME280;5668;52.012;8.724;2022-11-14T01:07:35;100380.63;;;7.06;81.12
11223;BME280;5668;52.012;8.724;2022-11-14T01:10:04;100377.34;;;7.02;81.17
11223;BME280;5668;52.012;8.724;2022-11-14T01:12:34;100377.53;;;6.99;81.07
11223;BME280;5668;52.012;8.724;2022-11-14T01:15:01;100374.97;;;6.99;81.14
11223;BME280;5668;52.012;8.724;2022-11-14T01:17:28;100369.94;;;6.96;80.05
11223;BME280;5668;52.012;8.724;2022-11-14T01:19:56;100370.84;;;6.95;80.87
11223;BME280;5668;52.012;8.724;2022-11-14T01:22:23;100365.78;;;6.93;80.98
11223;BME280;5668;52.012;8.724;2022-11-14T01:24:50;100360.69;;;6.92;80.86
11223;BME280;5668;52.012;8.724;2022-11-14T01:27:17;100361.69;;;6.89;80.84
11223;BME280;5668;52.012;8.724;2022-11-14T01:29:46;100366.94;;;6.88;81.66
11223;BME280;5668;52.012;8.724;2022-11-14T01:32:14;100361.84;;;6.86;81.32
11223;BME280;5668;52.012;8.724;2022-11-14T01:34:41;100368.75;;;6.86;81.92
11223;BME280;5668;52.012;8.724;2022-11-14T01:37:08;100362.03;;;6.83;80.83
11223;BME280;5668;52.012;8.724;2022-11-14T01:39:35;100348.28;;;6.83;81.80
11223;BME280;5668;52.012;8.724;2022-11-14T01:42:03;100341.59;;;6.79;81.48
11223;BME280;5668;52.012;8.724;2022-11-14T01:44:49;100344.88;;;6.82;80.69
11223;BME280;5668;52.012;8.724;2022-11-14T01:47:20;100337.19;;;6.81;81.11
11223;BME280;5668;52.012;8.724;2022-11-14T01:49:50;100332.03;;;6.81;81.27
11223;BME280;5668;52.012;8.724;2022-11-14T01:52:20;100327.03;;;6.78;81.48
11223;BME280;5668;52.012;8.724;2022-11-14T01:54:50;100320.09;;;6.78;81.90
11223;BME280;5668;52.012;8.724;2022-11-14T01:57:20;100317.03;;;6.72;81.67
11223;BME280;5668;52.012;8.724;2022-11-14T01:59:53;100325.69;;;6.71;81.30
11223;BME280;5668;52.012;8.724;2022-11-14T02:02:23;100312.03;;;6.69;81.41
11223;BME280;5668;52.012;8.724;2022-11-14T02:04:54;100310.53;;;6.65;81.66
11223;BME280;5668;52.012;8.724;2022-11-14T02:07:24;100302.03;;;6.63;82.06
11223;BME280;5668;52.012;8.724;2022-11-14T02:09:52;100295.19;;;6.61;81.94
11223;BME280;5668;52.012;8.724;2022-11-14T02:12:20;100299.44;;;6.63;82.19
11223;BME280;5668;52.012;8.724;2022-11-14T02:14:53;100293.53;;;6.60;82.04
11223;BME280;5668;52.012;8.724;2022-11-14T02:17:22;100290.03;;;6.61;81.76
11223;BME280;5668;52.012;8.724;2022-11-14T02:19:51;100295.94;;;6.64;81.67
11223;BME280;5668;52.012;8.724;2022-11-14T02:22:20;100294.88;;;6.68;82.13
11223;BME280;5668;52.012;8.724;2022-11-14T02:24:48;100282.47;;;6.74;82.39
11223;BME280;5668;52.012;8.724;2022-11-14T02:27:16;100283.72;;;6.83;82.13
11223;BME280;5668;52.012;8.724;2022-11-14T02:29:43;100286.72;;;6.91;81.57
11223;BME280;5668;52.012;8.724;2022-11-14T02:32:10;100287.28;;;6.96;81.75
11223;BME280;5668;52.012;8.724;2022-11-14T02:34:37;100289.72;;;6.99;81.79
11223;BME280;5668;52.012;8.724;2022-11-14T02:37:05;100279.19;;;7.02;81.75
11223;BME280;5668;52.012;8.724;2022-11-14T02:39:34;100282.53;;;7.04;80.97
11223;BME280;5668;52.012;8.724;2022-11-14T02:42:01;100284.13;;;7.07;79.59
11223;BME280;5668;52.012;8.724;2022-11-14T02:44:28;100277.34;;;7.04;79.45
11223;BME280;5668;52.012;8.724;2022-11-14T02:46:55;100276.88;;;6.97;79.34
11223;BME280;5668;52.012;8.724;2022-11-14T02:49:22;100277.94;;;6.93;80.53
11223;BME280;5668;52.012;8.724;2022-11-14T02:51:50;100277.28;;;6.90;80.89
11223;BME280;5668;52.012;8.724;2022-11-14T02:54:17;100273.19;;;6.86;81.70
11223;BME280;5668;52.012;8.724;2022-11-14T02:56:45;100270.69;;;6.84;82.64
11223;BME280;5668;52.012;8.724;2022-11-14T02:59:13;100273.03;;;6.89;83.09
11223;BME280;5668;52.012;8.724;2022-11-14T03:01:40;100271.28;;;6.89;83.06
11223;BME280;5668;52.012;8.724;2022-11-14T03:04:08;100267.81;;;6.90;82.93
11223;BME280;5668;52.012;8.724;2022-11-14T03:06:35;100265.84;;;6.94;82.92
11223;BME280;5668;52.012;8.724;2022-11-14T03:09:03;100266.53;;;6.97;82.38
11223;BME280;5668;52.012;8.724;2022-11-14T03:11:30;100262.94;;;7.00;82.25
11223;BME280;5668;52.012;8.724;2022-11-14T03:14:00;100272.53;;;6.98;82.39
11223;BME280;5668;52.012;8.724;2022-11-14T03:16:27;100268.28;;;6.97;81.25
11223;BME280;5668;52.012;8.724;2022-11-14T03:18:54;100259.78;;;6.95;82.51
11223;BME280;5668;52.012;8.724;2022-11-14T03:21:22;100265.69;;;6.97;82.25
11223;BME280;5668;52.012;8.724;2022-11-14T03:23:49;100260.53;;;6.97;82.51
11223;BME280;5668;52.012;8.724;2022-11-14T03:26:17;100253.44;;;7.00;82.50
11223;BME280;5668;52.012;8.724;2022-11-14T03:28:44;100249.84;;;7.03;81.93
11223;BME280;5668;52.012;8.724;2022-11-14T03:31:13;100250.41;;;7.08;81.98
11223;BME280;5668;52.012;8.724;2022-11-14T03:33:40;100244.41;;;7.08;81.47
11223;BME280;5668;52.012;8.724;2022-11-14T03:36:07;100240.34;;;7.04;81.89
11223;BME280;5668;52.012;8.724;2022-11-14T03:38:35;100237.84;;;7.02;82.31
11223;BME280;5668;52.012;8.724;2022-11-14T03:41:02;100237.09;;;7.00;81.41
11223;BME280;5668;52.012;8.724;2022-11-14T03:43:31;100232.88;;;6.99;81.64
11223;BME280;5668;52.012;8.724;2022-11-14T03:45:59;100237.22;;;6.98;81.98
11223;BME280;5668;52.012;8.724;2022-11-14T03:48:28;100231.84;;;7.02;81.39
11223;BME280;5668;52.012;8.724;2022-11-14T03:50:56;100226.19;;;6.95;81.32
11223;BME280;5668;52.012;8.724;2022-11-14T03:53:23;100231.19;;;6.98;81.94
11223;BME280;5668;52.012;8.724;2022-11-14T03:55:51;100231.72;;;6.89;82.56
11223;BME280;5668;52.012;8.724;2022-11-14T03:58:18;100227.53;;;6.86;83.29
11223;BME280;5668;52.012;8.724;2022-11-14T04:00:46;100222.47;;;6.85;83.04
11223;BME280;5668;52.012;8.724;2022-11-14T04:03:13;100220.06;;;6.82;83.65
11223;BME280;5668;52.012;8.724;2022-11-14T04:05:44;100217.41;;;6.83;84.05
11223;BME280;5668;52.012;8.724;2022-11-14T04:08:11;100215.66;;;6.84;83.63
11223;BME280;5668;52.012;8.724;2022-11-14T04:10:38;100210.72;;;6.79;83.27
11223;BME280;5668;52.012;8.724;2022-11-14T04:13:06;100208.41;;;6.75;83.65
11223;BME280;5668;52.012;8.724;2022-11-14T04:15:34;100208.41;;;6.75;84.01
11223;BME280;5668;52.012;8.724;2022-11-14T04:18:01;100196.50;;;6.72;84.22
11223;BME280;5668;52.012;8.724;2022-11-14T04:20:28;100200.34;;;6.65;84.32
11223;BME280;5668;52.012;8.724;2022-11-14T04:22:57;100203.91;;;6.63;85.00
11223;BME280;5668;52.012;8.724;2022-11-14T04:25:24;100204.75;;;6.63;84.52
11223;BME280;5668;52.012;8.724;2022-11-14T04:27:51;100197.06;;;6.61;84.38
11223;BME280;5668;52.012;8.724;2022-11-14T04:30:18;100197.06;;;6.61;85.37
11223;BME280;5668;52.012;8.724;2022-11-14T04:32:46;100202.25;;;6.61;84.86
11223;BME280;5668;52.012;8.724;2022-11-14T04:35:14;100199.78;;;6.60;84.60
11223;BME280;5668;52.012;8.724;2022-11-14T04:37:41;100188.75;;;6.56;86.10
11223;BME280;5668;52.012;8.724;2022-11-14T04:40:12;100192.94;;;6.59;86.14
11223;BME280;5668;52.012;8.724;2022-11-14T04:42:40;100186.25;;;6.55;85.48
11223;BME280;5668;52.012;8.724;2022-11-14T04:45:08;100193.09;;;6.56;86.55
11223;BME280;5668;52.012;8.724;2022-11-14T04:47:35;100187.78;;;6.59;86.33
11223;BME280;5668;52.012;8.724;2022-11-14T04:50:03;100191.00;;;6.63;85.96
11223;BME280;5668;52.012;8.724;2022-11-14T04:52:32;100189.25;;;6.63;85.36
11223;BME280;5668;52.012;8.724;2022-11-14T04:54:59;100190.75;;;6.67;85.34
11223;BME280;5668;52.012;8.724;2022-11-14T04:57:27;100187.34;;;6.67;85.66
11223;BME280;5668;52.012;8.724;2022-11-14T04:59:54;100179.53;;;6.68;85.79
11223;BME280;5668;52.012;8.724;2022-11-14T05:02:22;100181.75;;;6.74;84.98
11223;BME280;5668;52.012;8.724;2022-11-14T05:04:49;100185.75;;;6.80;84.79
11223;BME280;5668;52.012;8.724;2022-11-14T05:07:16;100190.75;;;6.83;85.55
11223;BME280;5668;52.012;8.724;2022-11-14T05:09:43;100188.88;;;6.85;85.09
11223;BME280;5668;52.012;8.724;2022-11-14T05:12:11;100186.06;;;6.89;84.44
11223;BME280;5668;52.012;8.724;2022-11-14T05:14:39;100178.31;;;6.89;83.53
11223;BME280;5668;52.012;8.724;2022-11-14T05:17:06;100177.56;;;6.87;83.50
11223;BME280;5668;52.012;8.724;2022-11-14T05:19:34;100175.81;;;6.88;83.06
11223;BME280;5668;52.012;8.724;2022-11-14T05:22:01;100184.56;;;6.85;82.86
11223;BME280;5668;52.012;8.724;2022-11-14T05:24:28;100182.25;;;6.81;82.67
11223;BME280;5668;52.012;8.724;2022-11-14T05:26:55;100178.91;;;6.79;82.86
11223;BME280;5668;52.012;8.724;2022-11-14T05:29:22;100182.41;;;6.78;83.05
11223;BME280;5668;52.012;8.724;2022-11-14T05:31:51;100184.06;;;6.79;83.63
11223;BME280;5668;52.012;8.724;2022-11-14T05:34:18;100177.00;;;6.82;82.56
11223;BME280;5668;52.012;8.724;2022-11-14T05:36:45;100171.91;;;6.81;82.60
11223;BME280;5668;52.012;8.724;2022-11-14T05:39:12;100172.06;;;6.78;82.74
11223;BME280;5668;52.012;8.724;2022-11-14T05:41:40;100163.75;;;6.73;82.65
11223;BME280;5668;52.012;8.724;2022-11-14T05:44:07;100166.41;;;6.71;83.24
11223;BME280;5668;52.012;8.724;2022-11-14T05:46:34;100160.63;;;6.68;83.11
11223;BME280;5668;52.012;8.724;2022-11-14T05:49:03;100157.44;;;6.63;83.30
11223;BME280;5668;52.012;8.724;2022-11-14T05:51:30;100153.38;;;6.58;83.89
11223;BME280;5668;52.012;8.724;2022-11-14T05:53:57;100161.13;;;6.58;84.14
11223;BME280;5668;52.012;8.724;2022-11-14T05:56:25;100155.13;;;6.58;84.61
11223;BME280;5668;52.012;8.724;2022-11-14T05:58:52;100149.13;;;6.57;84.26
11223;BME280;5668;52.012;8.724;2022-11-14T06:01:20;100155.28;;;6.55;84.52
11223;BME280;5668;52.012;8.724;2022-11-14T06:03:48;100157.03;;;6.54;84.52
11223;BME280;5668;52.012;8.724;2022-11-14T06:06:18;100163.13;;;6.53;84.38
11223;BME280;5668;52.012;8.724;2022-11-14T06:08:46;100156.47;;;6.49;84.61
11223;BME280;5668;52.012;8.724;2022-11-14T06:11:15;100154.81;;;6.48;84.30
11223;BME280;5668;52.012;8.724;2022-11-14T06:13:43;100152.41;;;6.45;84.53
11223;BME280;5668;52.012;8.724;2022-11-14T06:16:12;100156.72;;;6.45;83.48
11223;BME280;5668;52.012;8.724;2022-11-14T06:18:40;100158.00;;;6.38;83.65
11223;BME280;5668;52.012;8.724;2022-11-14T06:21:11;100160.81;;;6.33;83.42
11223;BME280;5668;52.012;8.724;2022-11-14T06:23:40;100158.22;;;6.33;83.63
11223;BME280;5668;52.012;8.724;2022-11-14T06:26:09;100151.81;;;6.40;83.67
11223;BME280;5668;52.012;8.724;2022-11-14T06:28:38;100155.50;;;6.36;82.75
11223;BME280;5668;52.012;8.724;2022-11-14T06:31:06;100160.09;;;6.31;83.60
11223;BME280;5668;52.012;8.724;2022-11-14T06:33:34;100152.34;;;6.31;83.37
11223;BME280;5668;52.012;8.724;2022-11-14T06:36:03;100146.22;;;6.32;83.64
11223;BME280;5668;52.012;8.724;2022-11-14T06:38:32;100150.31;;;6.36;83.33
11223;BME280;5668;52.012;8.724;2022-11-14T06:41:04;100141.91;;;6.33;83.70
11223;BME280;5668;52.012;8.724;2022-11-14T06:43:32;100145.66;;;6.27;83.69
11223;BME280;5668;52.012;8.724;2022-11-14T06:46:00;100145.75;;;6.26;83.90
11223;BME280;5668;52.012;8.724;2022-11-14T06:48:27;100145.66;;;6.27;84.29
11223;BME280;5668;52.012;8.724;2022-11-14T06:50:56;100133.59;;;6.28;83.74
11223;BME280;5668;52.012;8.724;2022-11-14T06:53:23;100130.34;;;6.24;83.99
11223;BME280;5668;52.012;8.724;2022-11-14T06:55:54;100131.94;;;6.27;83.76
11223;BME280;5668;52.012;8.724;2022-11-14T06:58:25;100131.84;;;6.28;83.29
11223;BME280;5668;52.012;8.724;2022-11-14T07:00:52;100136.84;;;6.31;83.83
11223;BME280;5668;52.012;8.724;2022-11-14T07:03:20;100130.03;;;6.30;83.93
11223;BME280;5668;52.012;8.724;2022-11-14T07:05:47;100135.00;;;6.33;84.25
11223;BME280;5668;52.012;8.724;2022-11-14T07:08:15;100133.94;;;6.37;84.64
11223;BME280;5668;52.012;8.724;2022-11-14T07:10:42;100140.75;;;6.38;84.06
11223;BME280;5668;52.012;8.724;2022-11-14T07:13:09;100135.16;;;6.46;84.54
11223;BME280;5668;52.012;8.724;2022-11-14T07:15:38;100133.16;;;6.51;83.88
11223;BME280;5668;52.012;8.724;2022-11-14T07:18:05;100136.38;;;6.54;83.90
11223;BME280;5668;52.012;8.724;2022-11-14T07:20:32;100133.78;;;6.54;83.81
11223;BME280;5668;52.012;8.724;2022-11-14T07:23:00;100134.41;;;6.59;84.15
11223;BME280;5668;52.012;8.724;2022-11-14T07:25:27;100131.72;;;6.61;84.13
11223;BME280;5668;52.012;8.724;2022-11-14T07:27:56;100136.72;;;6.64;84.32
11223;BME280;5668;52.012;8.724;2022-11-14T07:30:23;100137.53;;;6.65;83.85
11223;BME280;5668;52.012;8.724;2022-11-14T07:32:55;100135.72;;;6.67;84.12
11223;BME280;5668;52.012;8.724;2022-11-14T07:35:23;100142.44;;;6.69;84.68
11223;BME280;5668;52.012;8.724;2022-11-14T07:37:51;100129.63;;;6.68;84.51
11223;BME280;5668;52.012;8.724;2022-11-14T07:40:18;100135.63;;;6.68;85.30
11223;BME280;5668;52.012;8.724;2022-11-14T07:42:45;100122.59;;;6.70;84.80
11223;BME280;5668;52.012;8.724;2022-11-14T07:45:13;100120.84;;;6.70;85.52
11223;BME280;5668;52.012;8.724;2022-11-14T07:47:40;100124.13;;;6.74;85.52
11223;BME280;5668;52.012;8.724;2022-11-14T07:50:10;100129.28;;;6.74;85.61
11223;BME280;5668;52.012;8.724;2022-11-14T07:52:38;100118.94;;;6.74;86.26
11223;BME280;5668;52.012;8.724;2022-11-14T07:55:06;100123.91;;;6.77;86.26
11223;BME280;5668;52.012;8.724;2022-11-14T07:57:33;100119.44;;;6.80;85.53
11223;BME280;5668;52.012;8.724;2022-11-14T08:00:01;100117.59;;;6.82;86.25
11223;BME280;5668;52.012;8.724;2022-11-14T08:02:28;100130.44;;;6.84;85.67
11223;BME280;5668;52.012;8.724;2022-11-14T08:04:55;100124.31;;;6.85;86.31
11223;BME280;5668;52.012;8.724;2022-11-14T08:07:24;100128.75;;;6.83;86.26
11223;BME280;5668;52.012;8.724;2022-11-14T08:09:51;100124.44;;;6.83;86.07
11223;BME280;5668;52.012;8.724;2022-11-14T08:12:18;100127.09;;;6.82;86.80
11223;BME280;5668;52.012;8.724;2022-11-14T08:14:46;100123.59;;;6.83;86.62
11223;BME280;5668;52.012;8.724;2022-11-14T08:17:13;100125.25;;;6.84;86.62
11223;BME280;5668;52.012;8.724;2022-11-14T08:19:40;100125.97;;;6.86;87.60
11223;BME280;5668;52.012;8.724;2022-11-14T08:22:07;100125.06;;;6.87;87.73
11223;BME280;5668;52.012;8.724;2022-11-14T08:24:36;100121.56;;;6.88;88.09
11223;BME280;5668;52.012;8.724;2022-11-14T08:27:03;100122.22;;;6.91;87.90
11223;BME280;5668;52.012;8.724;2022-11-14T08:29:30;100124.53;;;6.96;88.15
11223;BME280;5668;52.012;8.724;2022-11-14T08:31:57;100112.25;;;6.99;88.10
11223;BME280;5668;52.012;8.724;2022-11-14T08:34:25;100102.03;;;6.98;87.88
11223;BME280;5668;52.012;8.724;2022-11-14T08:36:54;100097.59;;;7.00;88.10
11223;BME280;5668;52.012;8.724;2022-11-14T08:39:22;100099.19;;;7.03;88.61
11223;BME280;5668;52.012;8.724;2022-11-14T08:41:50;100107.00;;;7.01;88.52
11223;BME280;5668;52.012;8.724;2022-11-14T08:44:17;100110.34;;;7.03;88.08
11223;BME280;5668;52.012;8.724;2022-11-14T08:46:44;100101.69;;;7.04;88.02
11223;BME280;5668;52.012;8.724;2022-11-14T08:49:12;100104.91;;;7.08;89.20
11223;BME280;5668;52.012;8.724;2022-11-14T08:51:39;100097.16;;;7.08;89.08
11223;BME280;5668;52.012;8.724;2022-11-14T08:54:06;100104.81;;;7.09;88.70
11223;BME280;5668;52.012;8.724;2022-11-14T08:56:33;100102.97;;;7.11;89.78
11223;BME280;5668;52.012;8.724;2022-11-14T08:59:03;100101.84;;;7.15;89.02
11223;BME280;5668;52.012;8.724;2022-11-14T09:01:31;100090.44;;;7.19;89.59
11223;BME280;5668;52.012;8.724;2022-11-14T09:03:59;100095.41;;;7.22;89.62
11223;BME280;5668;52.012;8.724;2022-11-14T09:06:26;100102.16;;;7.25;89.15
11223;BME280;5668;52.012;8.724;2022-11-14T09:08:53;100101.88;;;7.29;89.60
11223;BME280;5668;52.012;8.724;2022-11-14T09:11:21;100102.53;;;7.33;89.66
11223;BME280;5668;52.012;8.724;2022-11-14T09:13:48;100104.81;;;7.37;90.13
11223;BME280;5668;52.012;8.724;2022-11-14T09:16:16;100105.56;;;7.39;90.27
11223;BME280;5668;52.012;8.724;2022-11-14T09:18:44;100100.16;;;7.44;90.05
11223;BME280;5668;52.012;8.724;2022-11-14T09:21:11;100104.09;;;7.50;90.85
11223;BME280;5668;52.012;8.724;2022-11-14T09:23:38;100104.66;;;7.55;90.31
11223;BME280;5668;52.012;8.724;2022-11-14T09:26:06;100092.19;;;7.61;90.06
11223;BME280;5668;52.012;8.724;2022-11-14T09:28:34;100093.53;;;7.67;90.23
11223;BME280;5668;52.012;8.724;2022-11-14T09:31:03;100091.44;;;7.73;89.67
11223;BME280;5668;52.012;8.724;2022-11-14T09:33:32;100086.06;;;7.76;90.38
11223;BME280;5668;52.012;8.724;2022-11-14T09:36:01;100085.69;;;7.83;90.65
11223;BME280;5668;52.012;8.724;2022-11-14T09:38:29;100080.03;;;7.90;90.36
11223;BME280;5668;52.012;8.724;2022-11-14T09:41:08;100075.19;;;7.98;90.39
11223;BME280;5668;52.012;8.724;2022-11-14T09:43:51;100073.06;;;8.05;90.26
11223;BME280;5668;52.012;8.724;2022-11-14T09:46:29;100065.75;;;8.11;90.62
11223;BME280;5668;52.012;8.724;2022-11-14T09:48:59;100064.22;;;8.22;90.53
11223;BME280;5668;52.012;8.724;2022-11-14T09:51:28;100058.66;;;8.28;91.30
11223;BME280;5668;52.012;8.724;2022-11-14T09:53:59;100056.34;;;8.37;90.30
11223;BME280;5668;52.012;8.724;2022-11-14T09:56:31;100050.47;;;8.48;91.07
11223;BME280;5668;52.012;8.724;2022-11-14T09:58:58;100045.41;;;8.59;90.26
11223;BME280;5668;52.012;8.724;2022-11-14T10:01:33;100048.31;;;8.67;90.57
11223;BME280;5668;52.012;8.724;2022-11-14T10:04:12;100042.34;;;8.79;90.20
11223;BME280;5668;52.012;8.724;2022-11-14T10:06:50;100038.19;;;8.89;89.87
11223;BME280;5668;52.012;8.724;2022-11-14T10:09:43;100038.81;;;9.06;89.72
11223;BME280;5668;52.012;8.724;2022-11-14T10:12:19;100043.16;;;9.18;89.42
11223;BME280;5668;52.012;8.724;2022-11-14T10:15:14;100042.31;;;9.30;89.27
11223;BME280;5668;52.012;8.724;2022-11-14T10:20:38;100042.06;;;9.58;88.37
11223;BME280;5668;52.012;8.724;2022-11-14T10:23:20;100028.94;;;9.73;87.79
11223;BME280;5668;52.012;8.724;2022-11-14T10:25:55;100024.53;;;9.86;88.36
11223;BME280;5668;52.012;8.724;2022-11-14T10:28:47;100028.63;;;10.01;87.66
11223;BME280;5668;52.012;8.724;2022-11-14T10:31:30;100045.63;;;10.18;87.09
11223;BME280;5668;52.012;8.724;2022-11-14T10:34:05;100025.72;;;10.29;85.86
11223;BME280;5668;52.012;8.724;2022-11-14T10:36:50;100035.56;;;10.48;85.12
11223;BME280;5668;52.012;8.724;2022-11-14T10:39:25;100017.31;;;10.61;84.56
11223;BME280;5668;52.012;8.724;2022-11-14T10:41:58;100031.06;;;10.74;84.13
11223;BME280;5668;52.012;8.724;2022-11-14T10:44:30;100031.66;;;10.89;83.28
11223;BME280;5668;52.012;8.724;2022-11-14T10:47:02;100037.59;;;11.02;83.41
11223;BME280;5668;52.012;8.724;2022-11-14T10:49:32;100029.19;;;11.20;82.48
11223;BME280;5668;52.012;8.724;2022-11-14T10:52:05;100013.25;;;11.25;80.39
11223;BME280;5668;52.012;8.724;2022-11-14T10:54:38;100017.13;;;11.31;80.76
11223;BME280;5668;52.012;8.724;2022-11-14T10:57:14;100015.00;;;11.47;80.44
11223;BME280;5668;52.012;8.724;2022-11-14T10:59:42;100002.66;;;11.60;79.69
11223;BME280;5668;52.012;8.724;2022-11-14T11:02:09;100011.91;;;11.75;79.81
11223;BME280;5668;52.012;8.724;2022-11-14T11:04:38;100002.41;;;11.85;78.01
11223;BME280;5668;52.012;8.724;2022-11-14T11:07:21;100004.16;;;11.96;77.68
11223;BME280;5668;52.012;8.724;2022-11-14T11:10:10;100012.16;;;12.04;78.48
11223;BME280;5668;52.012;8.724;2022-11-14T11:13:02;100012.13;;;12.15;77.78
11223;BME280;5668;52.012;8.724;2022-11-14T11:15:30;100014.84;;;12.25;77.59
11223;BME280;5668;52.012;8.724;2022-11-14T11:17:59;100011.78;;;12.40;76.41
11223;BME280;5668;52.012;8.724;2022-11-14T11:20:32;100014.56;;;12.49;75.75
11223;BME280;5668;52.012;8.724;2022-11-14T11:23:04;100006.84;;;12.58;75.26
11223;BME280;5668;52.012;8.724;2022-11-14T11:25:33;100011.03;;;12.70;75.40
11223;BME280;5668;52.012;8.724;2022-11-14T11:28:05;100004.41;;;12.66;72.89
11223;BME280;5668;52.012;8.724;2022-11-14T11:30:33;100005.25;;;12.67;72.79
11223;BME280;5668;52.012;8.724;2022-11-14T11:33:15;100000.03;;;12.67;72.81
11223;BME280;5668;52.012;8.724;2022-11-14T11:35:44;100009.69;;;12.76;72.45
11223;BME280;5668;52.012;8.724;2022-11-14T11:38:14;99986.78;;;12.79;71.22
11223;BME280;5668;52.012;8.724;2022-11-14T11:40:43;99988.19;;;12.84;70.00
11223;BME280;5668;52.012;8.724;2022-11-14T11:43:15;100004.47;;;12.76;69.70
11223;BME280;5668;52.012;8.724;2022-11-14T11:45:47;99999.50;;;12.73;69.78
11223;BME280;5668;52.012;8.724;2022-11-14T11:48:17;99994.59;;;12.79;69.67
11223;BME280;5668;52.012;8.724;2022-11-14T11:50:45;100006.69;;;12.80;69.56
11223;BME280;5668;52.012;8.724;2022-11-14T11:53:18;100001.78;;;12.87;69.41
11223;BME280;5668;52.012;8.724;2022-11-14T11:55:49;100001.91;;;12.86;68.67
11223;BME280;5668;52.012;8.724;2022-11-14T11:58:22;99995.44;;;12.80;68.50
11223;BME280;5668;52.012;8.724;2022-11-14T12:00:52;99994.59;;;12.79;69.12
11223;BME280;5668;52.012;8.724;2022-11-14T12:03:21;99982.97;;;12.84;69.27
11223;BME280;5668;52.012;8.724;2022-11-14T12:05:57;99982.84;;;12.85;69.34
11223;BME280;5668;52.012;8.724;2022-11-14T12:08:34;99988.31;;;12.82;68.26
11223;BME280;5668;52.012;8.724;2022-11-14T12:11:08;99991.31;;;12.77;69.46
11223;BME280;5668;52.012;8.724;2022-11-14T12:17:21;99985.47;;;12.64;69.21
11223;BME280;5668;52.012;8.724;2022-11-14T12:23:11;99968.69;;;12.57;69.88
11223;BME280;5668;52.012;8.724;2022-11-14T12:25:56;99966.06;;;12.57;69.56
11223;BME280;5668;52.012;8.724;2022-11-14T12:28:40;99967.31;;;12.53;68.64
11223;BME280;5668;52.012;8.724;2022-11-14T12:31:13;99970.84;;;12.52;69.54
11223;BME280;5668;52.012;8.724;2022-11-14T12:33:44;99956.88;;;12.53;69.70
11223;BME280;5668;52.012;8.724;2022-11-14T12:36:15;99954.06;;;12.45;69.12
11223;BME280;5668;52.012;8.724;2022-11-14T12:38:45;99950.75;;;12.43;69.40
11223;BME280;5668;52.012;8.724;2022-11-14T12:41:23;99956.09;;;12.41;70.01
11223;BME280;5668;52.012;8.724;2022-11-14T12:43:50;99964.19;;;12.38;69.59
11223;BME280;5668;52.012;8.724;2022-11-14T12:46:18;99955.97;;;12.43;70.14
11223;BME280;5668;52.012;8.724;2022-11-14T12:48:45;99955.97;;;12.43;70.81
11223;BME280;5668;52.012;8.724;2022-11-14T12:54:43;99950.25;;;12.49;70.49
11223;BME280;5668;52.012;8.724;2022-11-14T12:57:17;99941.94;;;12.55;70.84
11223;BME280;5668;52.012;8.724;2022-11-14T13:00:09;99932.59;;;12.53;71.37
11223;BME280;5668;52.012;8.724;2022-11-14T13:03:13;99928.44;;;12.50;71.01
11223;BME280;5668;52.012;8.724;2022-11-14T13:05:51;99929.97;;;12.53;70.80
11223;BME280;5668;52.012;8.724;2022-11-14T13:08:36;99919.13;;;12.48;71.45
11223;BME280;5668;52.012;8.724;2022-11-14T13:11:32;99917.06;;;12.51;71.75
11223;BME280;5668;52.012;8.724;2022-11-14T13:14:16;99916.25;;;12.51;71.87
11223;BME280;5668;52.012;8.724;2022-11-14T13:17:10;99917.31;;;12.48;72.56
11223;BME280;5668;52.012;8.724;2022-11-14T13:20:24;99917.84;;;12.42;72.64
11223;BME280;5668;52.012;8.724;2022-11-14T13:26:44;99914.56;;;12.40;73.61
11223;BME280;5668;52.012;8.724;2022-11-14T13:35:47;99910.97;;;12.41;73.76
11223;BME280;5668;52.012;8.724;2022-11-14T13:38:52;99904.13;;;12.40;73.95
11223;BME280;5668;52.012;8.724;2022-11-14T13:45:01;99893.53;;;12.32;73.73
11223;BME280;5668;52.012;8.724;2022-11-14T13:48:04;99898.28;;;12.27;73.75
11223;BME280;5668;52.012;8.724;2022-11-14T13:50:36;99898.28;;;12.27;75.08
11223;BME280;5668;52.012;8.724;2022-11-14T13:53:12;99891.75;;;12.32;74.79